Time;durP1;ratioP1;P1;durP2;ratioP2;P2;SDS_P1;SDS_P2;PMS_P1;PMS_P2;Temp;Humidity;BMP_temperature;BMP_pressure;BME280_temperature;BME280_humidity;BME280_pressure;Samples;Min_cycle;Max_cycle;Signal;HPM_P1;HPM_P2
2021/05/07 00:00:38;;;;;;;0.80;0.60;;;;;;;;;;5013647;28;20457;-74
2021/05/07 00:03:04;;;;;;;0.70;0.50;;;;;;;;;;5014361;28;20418;-74
2021/05/07 00:05:30;;;;;;;0.90;0.50;;;;;;;;;;5013516;28;20401;-74
2021/05/07 00:07:56;;;;;;;0.93;0.60;;;;;;;;;;5014842;28;20436;-74
2021/05/07 00:10:28;;;;;;;2.03;0.70;;;;;;;;;;5013158;28;20445;-74
2021/05/07 00:12:54;;;;;;;1.47;1.10;;;;;;;;;;5017433;28;20420;-75
2021/05/07 00:15:20;;;;;;;0.73;0.50;;;;;;;;;;5021307;28;20379;-74
2021/05/07 00:17:46;;;;;;;1.10;0.60;;;;;;;;;;5014642;28;20433;-74
2021/05/07 00:20:12;;;;;;;0.90;0.50;;;;;;;;;;5013945;28;20441;-74
2021/05/07 00:22:40;;;;;;;1.20;0.50;;;;;;;;;;5012810;28;20504;-74
2021/05/07 00:25:06;;;;;;;0.80;0.57;;;;;;;;;;5026279;28;20416;-75
2021/05/07 00:27:32;;;;;;;1.10;0.60;;;;;;;;;;5032816;28;20778;-74
2021/05/07 00:29:59;;;;;;;0.80;0.50;;;;;;;;;;5020909;28;20388;-74
2021/05/07 00:32:25;;;;;;;1.20;0.73;;;;;;;;;;5013938;28;20443;-74
2021/05/07 00:34:51;;;;;;;0.80;0.53;;;;;;;;;;5020020;28;20412;-74
2021/05/07 00:37:20;;;;;;;1.33;1.00;;;;;;;;;;5023567;28;20392;-74
2021/05/07 00:39:46;;;;;;;1.37;0.70;;;;;;;;;;5014039;28;20401;-75
2021/05/07 00:42:12;;;;;;;0.80;0.60;;;;;;;;;;5013917;28;20440;-74
2021/05/07 00:44:40;;;;;;;0.80;0.60;;;;;;;;;;5014177;28;20459;-74
2021/05/07 00:47:06;;;;;;;0.70;0.50;;;;;;;;;;5013794;28;20452;-75
2021/05/07 00:49:36;;;;;;;1.00;0.83;;;;;;;;;;5012860;28;20420;-72
2021/05/07 00:52:02;;;;;;;1.10;0.50;;;;;;;;;;5011942;28;20436;-73
2021/05/07 00:54:33;;;;;;;0.80;0.50;;;;;;;;;;5013858;28;20418;-72
2021/05/07 00:57:01;;;;;;;1.13;0.70;;;;;;;;;;5013799;28;20447;-72
2021/05/07 00:59:27;;;;;;;2.90;0.60;;;;;;;;;;5013431;28;20475;-73
2021/05/07 01:01:53;;;;;;;0.70;0.60;;;;;;;;;;5012192;28;20984;-73
2021/05/07 01:04:19;;;;;;;1.00;0.90;;;;;;;;;;5030002;28;20420;-73
2021/05/07 01:06:45;;;;;;;1.53;1.43;;;;;;;;;;5015624;28;20468;-73
2021/05/07 01:09:11;;;;;;;0.70;0.53;;;;;;;;;;5013195;28;20442;-73
2021/05/07 01:11:38;;;;;;;0.70;0.50;;;;;;;;;;5013415;28;20407;-73
2021/05/07 01:14:04;;;;;;;0.70;0.50;;;;;;;;;;5013395;28;20412;-73
2021/05/07 01:16:32;;;;;;;1.00;0.60;;;;;;;;;;5013486;28;20475;-74
2021/05/07 01:19:01;;;;;;;1.63;0.63;;;;;;;;;;5013639;28;20444;-73
2021/05/07 01:21:27;;;;;;;0.70;0.50;;;;;;;;;;5013299;28;20428;-73
2021/05/07 01:23:53;;;;;;;0.70;0.50;;;;;;;;;;5011901;28;20398;-74
2021/05/07 01:26:24;;;;;;;1.93;0.90;;;;;;;;;;5013422;28;20956;-73
2021/05/07 01:28:50;;;;;;;2.00;0.70;;;;;;;;;;5013042;28;20747;-72
2021/05/07 01:31:16;;;;;;;0.70;0.50;;;;;;;;;;5013048;28;20419;-72
2021/05/07 01:33:42;;;;;;;0.83;0.60;;;;;;;;;;5017369;28;20408;-74
2021/05/07 01:36:10;;;;;;;1.10;1.00;;;;;;;;;;5014476;28;20410;-73
2021/05/07 01:38:36;;;;;;;0.70;0.60;;;;;;;;;;5012039;28;20515;-73
2021/05/07 01:41:03;;;;;;;0.80;0.67;;;;;;;;;;5012806;28;20471;-72
2021/05/07 01:43:33;;;;;;;0.80;0.67;;;;;;;;;;5012892;28;20990;-74
2021/05/07 01:45:59;;;;;;;0.80;0.60;;;;;;;;;;5011464;28;20489;-74
2021/05/07 01:48:25;;;;;;;0.90;0.70;;;;;;;;;;5011537;28;20470;-73
2021/05/07 01:50:53;;;;;;;0.70;0.50;;;;;;;;;;5012654;28;21008;-73
2021/05/07 01:53:21;;;;;;;0.70;0.50;;;;;;;;;;5012644;28;20754;-74
2021/05/07 01:55:48;;;;;;;0.70;0.47;;;;;;;;;;5012661;28;20883;-74
2021/05/07 01:58:15;;;;;;;1.80;1.70;;;;;;;;;;5014923;28;20457;-74
2021/05/07 02:00:41;;;;;;;0.80;0.70;;;;;;;;;;5010938;28;20471;-74
2021/05/07 02:03:10;;;;;;;0.70;0.40;;;;;;;;;;5012188;28;20490;-73
2021/05/07 02:05:36;;;;;;;0.70;0.50;;;;;;;;;;5011212;28;20433;-74
2021/05/07 02:08:04;;;;;;;0.87;0.77;;;;;;;;;;5010568;28;20880;-74
2021/05/07 02:10:30;;;;;;;0.70;0.40;;;;;;;;;;5012150;28;20382;-75
2021/05/07 02:12:57;;;;;;;0.80;0.80;;;;;;;;;;5012072;28;20390;-74
2021/05/07 02:15:24;;;;;;;0.70;0.50;;;;;;;;;;5012488;28;20397;-74
2021/05/07 02:17:52;;;;;;;0.70;0.43;;;;;;;;;;5012130;28;20838;-74
2021/05/07 02:20:19;;;;;;;0.80;0.60;;;;;;;;;;5011750;28;20422;-74
2021/05/07 02:22:47;;;;;;;1.00;0.60;;;;;;;;;;5012104;28;20789;-74
2021/05/07 02:25:14;;;;;;;1.33;0.63;;;;;;;;;;5012157;28;20858;-74
2021/05/07 02:27:40;;;;;;;0.80;0.63;;;;;;;;;;5012122;28;20413;-74
2021/05/07 02:30:07;;;;;;;6.23;1.73;;;;;;;;;;5011782;28;20867;-75
2021/05/07 02:32:33;;;;;;;0.80;0.50;;;;;;;;;;4999472;28;20489;-75
2021/05/07 02:34:59;;;;;;;0.70;0.40;;;;;;;;;;4992598;28;20439;-75
2021/05/07 02:37:25;;;;;;;3.50;1.70;;;;;;;;;;5004960;28;20442;-74
2021/05/07 02:39:53;;;;;;;0.90;0.60;;;;;;;;;;5006499;28;20485;-75
2021/05/07 02:42:20;;;;;;;0.70;0.50;;;;;;;;;;5008812;28;20483;-74
2021/05/07 02:44:46;;;;;;;1.37;1.00;;;;;;;;;;5012188;28;20416;-75
2021/05/07 02:47:14;;;;;;;1.70;0.90;;;;;;;;;;5012292;28;20504;-73
2021/05/07 02:49:40;;;;;;;1.17;0.50;;;;;;;;;;4997355;28;20430;-74
2021/05/07 02:52:06;;;;;;;0.70;0.50;;;;;;;;;;5005557;28;20455;-74
2021/05/07 02:54:32;;;;;;;1.30;0.73;;;;;;;;;;5012111;28;20435;-74
2021/05/07 02:56:58;;;;;;;0.70;0.50;;;;;;;;;;5010712;28;20423;-74
2021/05/07 02:59:24;;;;;;;1.00;0.70;;;;;;;;;;5011708;28;20415;-74
2021/05/07 03:01:51;;;;;;;0.83;0.60;;;;;;;;;;5011593;28;20470;-74
2021/05/07 03:04:20;;;;;;;1.23;1.13;;;;;;;;;;5011526;28;20389;-74
2021/05/07 03:06:50;;;;;;;0.80;0.70;;;;;;;;;;5011864;28;20448;-74
2021/05/07 03:09:16;;;;;;;0.70;0.40;;;;;;;;;;5012063;28;20408;-74
2021/05/07 03:11:42;;;;;;;0.77;0.50;;;;;;;;;;5011721;28;20512;-74
2021/05/07 03:14:08;;;;;;;0.80;0.70;;;;;;;;;;5011120;28;20459;-74
2021/05/07 03:16:34;;;;;;;2.60;0.87;;;;;;;;;;5011883;28;20449;-74
2021/05/07 03:19:03;;;;;;;0.70;0.40;;;;;;;;;;5021373;28;20464;-74
2021/05/07 03:21:29;;;;;;;0.70;0.50;;;;;;;;;;5038570;28;20446;-74
2021/05/07 03:23:55;;;;;;;0.87;0.50;;;;;;;;;;5055641;28;20422;-74
2021/05/07 03:26:21;;;;;;;0.70;0.40;;;;;;;;;;5057923;28;20458;-74
2021/05/07 03:28:49;;;;;;;1.03;0.80;;;;;;;;;;5050149;28;20443;-75
2021/05/07 03:31:15;;;;;;;2.30;1.27;;;;;;;;;;5027343;28;20439;-75
2021/05/07 03:33:44;;;;;;;0.90;0.57;;;;;;;;;;5017706;28;20412;-75
2021/05/07 03:36:10;;;;;;;0.87;0.53;;;;;;;;;;5024588;28;20490;-74
2021/05/07 03:38:36;;;;;;;0.70;0.50;;;;;;;;;;5016764;28;20475;-74
2021/05/07 03:41:04;;;;;;;0.70;0.50;;;;;;;;;;5015442;28;20826;-74
2021/05/07 03:43:30;;;;;;;0.70;0.50;;;;;;;;;;5011178;28;20418;-74
2021/05/07 03:45:56;;;;;;;0.80;0.77;;;;;;;;;;5022757;28;20404;-75
2021/05/07 03:48:22;;;;;;;1.27;0.80;;;;;;;;;;5012183;28;20392;-72
2021/05/07 03:50:49;;;;;;;0.70;0.50;;;;;;;;;;5009645;28;20476;-74
2021/05/07 03:53:15;;;;;;;0.80;0.60;;;;;;;;;;5010759;28;20442;-74
2021/05/07 03:55:44;;;;;;;1.27;1.10;;;;;;;;;;5010914;28;20397;-74
2021/05/07 03:58:11;;;;;;;0.70;0.50;;;;;;;;;;5014772;28;20419;-76
2021/05/07 04:00:37;;;;;;;0.90;0.60;;;;;;;;;;4991632;28;20445;-74
2021/05/07 04:03:04;;;;;;;0.70;0.50;;;;;;;;;;5023161;28;20422;-72
2021/05/07 04:05:30;;;;;;;0.70;0.50;;;;;;;;;;5019246;28;20413;-72
2021/05/07 04:08:08;;;;;;;0.80;0.70;;;;;;;;;;5019446;28;20782;-74
2021/05/07 04:10:47;;;;;;;0.70;0.40;;;;;;;;;;5019190;28;20771;-74
2021/05/07 04:15:58;;;;;;;1.00;0.60;;;;;;;;;;5015948;28;20490;-74
2021/05/07 04:18:26;;;;;;;0.70;0.50;;;;;;;;;;5010593;28;20496;-74
2021/05/07 04:20:52;;;;;;;0.70;0.70;;;;;;;;;;5010859;28;20533;-74
2021/05/07 04:23:18;;;;;;;0.80;0.47;;;;;;;;;;5014246;28;20498;-74
2021/05/07 04:25:44;;;;;;;0.70;0.40;;;;;;;;;;5031837;28;20492;-75
2021/05/07 04:28:10;;;;;;;1.00;0.77;;;;;;;;;;5018501;28;20787;-73
2021/05/07 04:30:36;;;;;;;1.87;0.87;;;;;;;;;;5006360;28;20501;-76
2021/05/07 04:33:02;;;;;;;0.90;0.50;;;;;;;;;;5011999;28;20428;-76
2021/05/07 04:35:28;;;;;;;0.80;0.60;;;;;;;;;;5021333;28;20789;-76
2021/05/07 04:37:54;;;;;;;0.70;0.57;;;;;;;;;;5013117;28;20417;-75
2021/05/07 04:40:20;;;;;;;0.90;0.67;;;;;;;;;;5012057;28;20436;-76
2021/05/07 04:42:46;;;;;;;0.90;0.50;;;;;;;;;;5012993;28;20946;-76
2021/05/07 04:45:12;;;;;;;2.60;2.40;;;;;;;;;;5013591;28;20417;-76
2021/05/07 04:47:38;;;;;;;3.37;1.00;;;;;;;;;;5013519;28;20738;-76
2021/05/07 04:50:05;;;;;;;3.27;1.60;;;;;;;;;;5013656;28;20401;-76
2021/05/07 04:52:31;;;;;;;1.10;0.60;;;;;;;;;;5013435;28;20427;-76
2021/05/07 04:54:58;;;;;;;3.67;0.87;;;;;;;;;;5012708;28;20923;-76
2021/05/07 04:57:24;;;;;;;1.87;0.97;;;;;;;;;;5013617;28;20383;-76
2021/05/07 04:59:50;;;;;;;0.80;0.80;;;;;;;;;;4996377;28;20425;-76
2021/05/07 05:02:20;;;;;;;0.80;0.60;;;;;;;;;;5020939;28;20970;-76
2021/05/07 05:04:46;;;;;;;0.83;0.70;;;;;;;;;;5021597;28;21181;-76
2021/05/07 05:07:12;;;;;;;0.80;0.60;;;;;;;;;;5015689;28;20437;-76
2021/05/07 05:09:40;;;;;;;0.70;0.50;;;;;;;;;;5017120;28;20413;-75
2021/05/07 05:12:06;;;;;;;1.00;0.90;;;;;;;;;;5011730;28;20411;-76
2021/05/07 05:14:32;;;;;;;1.33;0.90;;;;;;;;;;5022600;28;20902;-76
2021/05/07 05:16:58;;;;;;;1.03;0.80;;;;;;;;;;5022093;28;20455;-77
2021/05/07 05:19:24;;;;;;;0.70;0.50;;;;;;;;;;5023081;28;20441;-77
2021/05/07 05:21:50;;;;;;;0.70;0.50;;;;;;;;;;5024077;28;20463;-77
2021/05/07 05:24:16;;;;;;;0.90;0.77;;;;;;;;;;5017018;28;20405;-77
2021/05/07 05:26:42;;;;;;;0.70;0.50;;;;;;;;;;5014815;28;20472;-75
2021/05/07 05:29:13;;;;;;;0.70;0.57;;;;;;;;;;5011277;28;20512;-75
2021/05/07 05:31:39;;;;;;;0.93;0.60;;;;;;;;;;5011435;28;20408;-75
2021/05/07 05:34:14;;;;;;;12.33;1.23;;;;;;;;;;5023819;28;20456;-75
2021/05/07 05:36:46;;;;;;;6.30;0.73;;;;;;;;;;5008259;28;20395;-75
2021/05/07 05:39:13;;;;;;;0.70;0.40;;;;;;;;;;5016431;28;20397;-75
2021/05/07 05:41:40;;;;;;;0.90;0.60;;;;;;;;;;5010752;28;20464;-75
2021/05/07 05:44:06;;;;;;;0.70;0.47;;;;;;;;;;5012415;28;20413;-75
2021/05/07 05:46:34;;;;;;;0.80;0.53;;;;;;;;;;5012516;28;20921;-75
2021/05/07 05:49:00;;;;;;;0.90;0.60;;;;;;;;;;5012524;28;20440;-75
2021/05/07 05:51:26;;;;;;;0.70;0.50;;;;;;;;;;5012201;28;20789;-75
2021/05/07 05:53:52;;;;;;;0.80;0.67;;;;;;;;;;5012231;28;20415;-75
2021/05/07 05:56:18;;;;;;;1.47;0.90;;;;;;;;;;5011104;28;20474;-76
2021/05/07 05:58:44;;;;;;;1.10;0.60;;;;;;;;;;5012902;28;20551;-75
2021/05/07 06:01:10;;;;;;;1.00;0.90;;;;;;;;;;5011720;28;20442;-75
2021/05/07 06:03:36;;;;;;;0.77;0.60;;;;;;;;;;5012638;28;20420;-75
2021/05/07 06:06:02;;;;;;;0.80;0.60;;;;;;;;;;5010961;28;20487;-75
2021/05/07 06:08:28;;;;;;;0.70;0.53;;;;;;;;;;5010921;28;20872;-75
2021/05/07 06:10:54;;;;;;;0.70;0.50;;;;;;;;;;5010293;28;20795;-75
2021/05/07 06:13:20;;;;;;;0.80;0.70;;;;;;;;;;5012378;28;20519;-76
2021/05/07 06:15:46;;;;;;;0.70;0.50;;;;;;;;;;5014134;28;20391;-76
2021/05/07 06:18:12;;;;;;;1.13;0.93;;;;;;;;;;5012358;28;20470;-77
2021/05/07 06:20:38;;;;;;;0.70;0.50;;;;;;;;;;5012579;28;20727;-76
2021/05/07 06:23:04;;;;;;;0.97;0.60;;;;;;;;;;5012981;28;20813;-77
2021/05/07 06:25:30;;;;;;;2.23;1.77;;;;;;;;;;5011034;28;20441;-75
2021/05/07 06:27:56;;;;;;;1.00;0.70;;;;;;;;;;5010560;28;20475;-75
2021/05/07 06:30:22;;;;;;;0.70;0.50;;;;;;;;;;5010494;28;20417;-75
2021/05/07 06:32:48;;;;;;;8.67;1.23;;;;;;;;;;5010452;28;20496;-75
2021/05/07 06:35:14;;;;;;;1.67;1.40;;;;;;;;;;5012705;28;20429;-75
2021/05/07 06:37:40;;;;;;;0.70;0.50;;;;;;;;;;5012156;28;20397;-75
2021/05/07 06:40:07;;;;;;;0.70;0.70;;;;;;;;;;5010627;28;20424;-74
2021/05/07 06:42:38;;;;;;;0.70;0.50;;;;;;;;;;5008373;28;20530;-76
2021/05/07 06:45:10;;;;;;;1.33;0.70;;;;;;;;;;5010293;28;20384;-75
2021/05/07 06:47:36;;;;;;;0.70;0.50;;;;;;;;;;5018683;28;20492;-75
2021/05/07 06:50:03;;;;;;;0.90;0.63;;;;;;;;;;5015734;28;20414;-75
2021/05/07 06:52:30;;;;;;;0.80;0.77;;;;;;;;;;5023127;28;20452;-75
2021/05/07 06:54:59;;;;;;;2.70;1.03;;;;;;;;;;5016740;28;20440;-75
2021/05/07 06:57:25;;;;;;;2.07;1.90;;;;;;;;;;5015981;28;20429;-75
2021/05/07 06:59:51;;;;;;;1.00;0.90;;;;;;;;;;5020891;28;20783;-75
2021/05/07 07:02:17;;;;;;;0.80;0.60;;;;;;;;;;5023959;28;20468;-75
2021/05/07 07:04:45;;;;;;;3.53;1.43;;;;;;;;;;5021343;28;20428;-75
2021/05/07 07:07:12;;;;;;;0.90;0.60;;;;;;;;;;5011628;28;20479;-75
2021/05/07 07:09:38;;;;;;;1.10;0.70;;;;;;;;;;5011222;28;20882;-75
2021/05/07 07:12:06;;;;;;;1.20;0.60;;;;;;;;;;5013537;28;20409;-75
2021/05/07 07:14:37;;;;;;;1.37;0.60;;;;;;;;;;5025850;28;20819;-75
2021/05/07 07:17:03;;;;;;;0.70;0.50;;;;;;;;;;5009050;28;20391;-75
2021/05/07 07:19:29;;;;;;;1.00;0.90;;;;;;;;;;5014208;28;20449;-75
2021/05/07 07:21:55;;;;;;;2.10;1.73;;;;;;;;;;5019982;28;20448;-75
2021/05/07 07:24:21;;;;;;;3.17;2.70;;;;;;;;;;5020369;28;20422;-75
2021/05/07 07:26:47;;;;;;;1.93;1.07;;;;;;;;;;5020507;28;20395;-75
2021/05/07 07:29:13;;;;;;;0.80;0.50;;;;;;;;;;5013516;28;20437;-75
2021/05/07 07:31:39;;;;;;;1.23;0.70;;;;;;;;;;5011915;28;20851;-74
2021/05/07 07:34:05;;;;;;;1.00;0.70;;;;;;;;;;5011652;28;20815;-74
2021/05/07 07:36:31;;;;;;;0.90;0.60;;;;;;;;;;5011221;28;20398;-77
2021/05/07 07:38:57;;;;;;;0.80;0.63;;;;;;;;;;5025364;28;20364;-76
2021/05/07 07:41:23;;;;;;;0.70;0.50;;;;;;;;;;5036373;28;20447;-76
2021/05/07 07:43:49;;;;;;;0.70;0.50;;;;;;;;;;5033810;28;20380;-76
2021/05/07 07:46:15;;;;;;;0.80;0.60;;;;;;;;;;5036588;28;20384;-76
2021/05/07 07:48:41;;;;;;;11.30;1.27;;;;;;;;;;5037042;28;20423;-76
2021/05/07 07:51:07;;;;;;;1.10;0.57;;;;;;;;;;5039832;28;20443;-75
2021/05/07 07:53:36;;;;;;;0.93;0.80;;;;;;;;;;5047550;28;20396;-76
2021/05/07 07:56:02;;;;;;;0.80;0.50;;;;;;;;;;5023567;28;20917;-76
2021/05/07 07:58:27;;;;;;;1.57;0.70;;;;;;;;;;5023399;28;20385;-75
2021/05/07 08:00:55;;;;;;;0.90;0.60;;;;;;;;;;5014362;28;20463;-75
2021/05/07 08:03:21;;;;;;;0.90;0.70;;;;;;;;;;5015113;28;20414;-76
2021/05/07 08:05:47;;;;;;;1.27;1.17;;;;;;;;;;5015049;28;20416;-74
2021/05/07 08:08:15;;;;;;;1.30;0.60;;;;;;;;;;5018949;28;20764;-74
2021/05/07 08:10:44;;;;;;;0.87;0.70;;;;;;;;;;5023671;28;20408;-74
2021/05/07 08:13:10;;;;;;;4.77;1.00;;;;;;;;;;5022166;28;20409;-76
2021/05/07 08:15:36;;;;;;;0.70;0.50;;;;;;;;;;5023157;28;21057;-75
2021/05/07 08:18:02;;;;;;;0.80;0.60;;;;;;;;;;5017217;28;20777;-75
2021/05/07 08:20:28;;;;;;;0.80;0.50;;;;;;;;;;5020811;28;20746;-75
2021/05/07 08:22:56;;;;;;;0.90;0.70;;;;;;;;;;5029574;28;20381;-74
2021/05/07 08:25:22;;;;;;;0.70;0.50;;;;;;;;;;5014758;28;20558;-74
2021/05/07 08:27:48;;;;;;;0.80;0.60;;;;;;;;;;5014380;28;21122;-74
2021/05/07 08:30:14;;;;;;;0.90;0.63;;;;;;;;;;5013499;28;20411;-74
2021/05/07 08:32:41;;;;;;;1.03;0.70;;;;;;;;;;5013972;28;20877;-76
2021/05/07 08:35:07;;;;;;;0.70;0.50;;;;;;;;;;5014301;28;20897;-74
2021/05/07 08:37:40;;;;;;;1.10;0.50;;;;;;;;;;5013165;28;20493;-76
2021/05/07 08:40:08;;;;;;;0.70;0.50;;;;;;;;;;5014337;28;20409;-74
2021/05/07 08:42:34;;;;;;;0.80;0.50;;;;;;;;;;5013933;28;20552;-74
2021/05/07 08:45:00;;;;;;;0.73;0.40;;;;;;;;;;5014288;28;20409;-74
2021/05/07 08:47:31;;;;;;;0.70;0.50;;;;;;;;;;5013751;28;20816;-74
2021/05/07 08:50:00;;;;;;;0.70;0.50;;;;;;;;;;5013816;28;20352;-74
2021/05/07 08:52:27;;;;;;;0.80;0.50;;;;;;;;;;5026052;23;20549;-72
2021/05/07 08:54:53;;;;;;;0.70;0.40;;;;;;;;;;5052175;28;20869;-72
2021/05/07 08:57:19;;;;;;;0.70;0.40;;;;;;;;;;5042285;28;20845;-72
2021/05/07 08:59:45;;;;;;;0.90;0.70;;;;;;;;;;5066453;28;20411;-71
2021/05/07 09:02:11;;;;;;;0.70;0.60;;;;;;;;;;5058391;28;20436;-72
2021/05/07 09:04:37;;;;;;;0.70;0.50;;;;;;;;;;5062629;28;20421;-73
2021/05/07 09:07:11;;;;;;;0.80;0.50;;;;;;;;;;5064002;28;20411;-70
2021/05/07 09:09:48;;;;;;;0.90;0.50;;;;;;;;;;5062513;28;20470;-72
2021/05/07 09:12:23;;;;;;;1.07;0.70;;;;;;;;;;5063180;28;20405;-71
2021/05/07 09:14:49;;;;;;;0.70;0.50;;;;;;;;;;5062794;28;20478;-71
2021/05/07 09:17:18;;;;;;;0.70;0.60;;;;;;;;;;5070116;28;20420;-71
2021/05/07 09:19:44;;;;;;;0.80;0.50;;;;;;;;;;5059463;28;20421;-72
2021/05/07 09:22:10;;;;;;;0.80;0.60;;;;;;;;;;5059470;28;20456;-73
2021/05/07 09:24:37;;;;;;;0.70;0.50;;;;;;;;;;5062782;28;20396;-72
2021/05/07 09:27:04;;;;;;;0.70;0.50;;;;;;;;;;5066224;28;20388;-72
2021/05/07 09:29:31;;;;;;;1.00;0.67;;;;;;;;;;5064567;28;20484;-73
2021/05/07 09:31:58;;;;;;;1.53;0.60;;;;;;;;;;5060666;28;20475;-72
2021/05/07 09:34:24;;;;;;;0.93;0.60;;;;;;;;;;5058461;28;20466;-73
2021/05/07 09:36:50;;;;;;;0.70;0.50;;;;;;;;;;5059987;28;20906;-73
2021/05/07 09:39:16;;;;;;;0.70;0.57;;;;;;;;;;5070997;28;20751;-74
2021/05/07 09:41:46;;;;;;;0.90;0.70;;;;;;;;;;5072594;28;20537;-73
2021/05/07 09:44:16;;;;;;;2.47;0.70;;;;;;;;;;5077285;28;20491;-73
2021/05/07 09:46:42;;;;;;;0.80;0.53;;;;;;;;;;5073233;28;20479;-73
2021/05/07 09:49:08;;;;;;;1.00;0.70;;;;;;;;;;5073192;28;20841;-73
2021/05/07 09:51:40;;;;;;;0.80;0.60;;;;;;;;;;5071569;28;21231;-72
2021/05/07 09:54:07;;;;;;;0.80;0.60;;;;;;;;;;5076432;28;20484;-72
2021/05/07 09:56:33;;;;;;;0.80;0.63;;;;;;;;;;5073488;28;20490;-73
2021/05/07 09:59:00;;;;;;;0.70;0.60;;;;;;;;;;5080958;28;20925;-73
2021/05/07 10:01:26;;;;;;;1.67;0.60;;;;;;;;;;5084056;28;20485;-71
2021/05/07 10:03:55;;;;;;;0.80;0.67;;;;;;;;;;5071269;28;20788;-72
2021/05/07 10:06:21;;;;;;;0.90;0.70;;;;;;;;;;5053047;28;20385;-70
2021/05/07 10:08:47;;;;;;;0.80;0.50;;;;;;;;;;5062072;28;20795;-70
2021/05/07 10:11:13;;;;;;;1.00;0.83;;;;;;;;;;5053131;28;21229;-72
2021/05/07 10:13:39;;;;;;;0.80;0.50;;;;;;;;;;5060352;28;21131;-72
2021/05/07 10:16:06;;;;;;;0.83;0.70;;;;;;;;;;5056346;28;20483;-73
2021/05/07 10:18:34;;;;;;;1.13;0.60;;;;;;;;;;5063921;28;20431;-73
2021/05/07 10:21:07;;;;;;;2.23;2.03;;;;;;;;;;5066555;28;21109;-73
2021/05/07 10:23:34;;;;;;;0.90;0.70;;;;;;;;;;5060904;28;20409;-73
2021/05/07 10:26:09;;;;;;;0.80;0.70;;;;;;;;;;5065891;28;20392;-73
2021/05/07 10:28:48;;;;;;;0.80;0.57;;;;;;;;;;5055927;28;20417;-74
2021/05/07 10:31:15;;;;;;;0.80;0.60;;;;;;;;;;5049825;28;20576;-73
2021/05/07 10:33:44;;;;;;;0.80;0.60;;;;;;;;;;5058099;28;20389;-73
2021/05/07 10:36:10;;;;;;;0.93;0.57;;;;;;;;;;5052064;28;20475;-74
2021/05/07 10:38:47;;;;;;;0.80;0.60;;;;;;;;;;5059866;28;20488;-74
2021/05/07 10:41:12;;;;;;;0.73;0.50;;;;;;;;;;5055559;28;20453;-74
2021/05/07 10:43:40;;;;;;;1.53;0.70;;;;;;;;;;5060318;28;20526;-73
2021/05/07 10:46:06;;;;;;;0.80;0.50;;;;;;;;;;5061682;28;20804;-73
2021/05/07 10:48:32;;;;;;;0.80;0.57;;;;;;;;;;5057195;28;20369;-73
2021/05/07 10:50:59;;;;;;;0.90;0.73;;;;;;;;;;5059805;28;20427;-73
2021/05/07 10:53:26;;;;;;;0.70;0.50;;;;;;;;;;5060851;28;20488;-73
2021/05/07 10:55:52;;;;;;;1.00;0.60;;;;;;;;;;5071414;28;20414;-73
2021/05/07 10:58:29;;;;;;;1.30;0.80;;;;;;;;;;5074619;28;20403;-73
2021/05/07 11:00:57;;;;;;;3.70;0.80;;;;;;;;;;5094699;28;20432;-73
2021/05/07 11:03:23;;;;;;;0.77;0.63;;;;;;;;;;5078839;28;20395;-73
2021/05/07 11:05:50;;;;;;;0.80;0.60;;;;;;;;;;5071891;28;20410;-73
2021/05/07 11:08:16;;;;;;;0.87;0.60;;;;;;;;;;5070749;28;20395;-73
2021/05/07 11:10:43;;;;;;;1.17;0.60;;;;;;;;;;5061617;28;20391;-72
2021/05/07 11:13:10;;;;;;;0.90;0.57;;;;;;;;;;5066113;28;20403;-72
2021/05/07 11:15:36;;;;;;;0.70;0.60;;;;;;;;;;5060080;28;20476;-73
2021/05/07 11:18:03;;;;;;;0.73;0.53;;;;;;;;;;5053319;28;20404;-73
2021/05/07 11:20:38;;;;;;;0.70;0.57;;;;;;;;;;5063502;28;20970;-72
2021/05/07 11:23:11;;;;;;;1.37;1.27;;;;;;;;;;5054449;28;20460;-73
2021/05/07 11:25:38;;;;;;;0.70;0.50;;;;;;;;;;5059025;28;20386;-72
2021/05/07 11:28:18;;;;;;;0.70;0.50;;;;;;;;;;5056684;28;20456;-74
2021/05/07 11:30:50;;;;;;;0.97;0.70;;;;;;;;;;5057433;28;20422;-75
2021/05/07 11:33:17;;;;;;;0.70;0.60;;;;;;;;;;5058426;28;20392;-75
2021/05/07 11:35:43;;;;;;;0.70;0.60;;;;;;;;;;5067935;28;20883;-74
2021/05/07 11:38:09;;;;;;;0.70;0.50;;;;;;;;;;5068396;28;20445;-73
2021/05/07 11:40:38;;;;;;;0.90;0.70;;;;;;;;;;5063777;28;20389;-73
2021/05/07 11:43:08;;;;;;;0.70;0.50;;;;;;;;;;5062328;28;20985;-74
2021/05/07 11:45:34;;;;;;;0.70;0.50;;;;;;;;;;5067152;28;20476;-75
2021/05/07 11:48:05;;;;;;;1.17;0.67;;;;;;;;;;5058953;28;20420;-72
2021/05/07 11:50:31;;;;;;;1.00;0.80;;;;;;;;;;5056199;28;20441;-72
2021/05/07 11:52:57;;;;;;;0.97;0.80;;;;;;;;;;5055885;28;21063;-73
2021/05/07 11:55:25;;;;;;;1.97;0.60;;;;;;;;;;5070673;28;20467;-75
2021/05/07 11:58:00;;;;;;;0.70;0.50;;;;;;;;;;5064921;28;20452;-75
2021/05/07 12:00:26;;;;;;;0.80;0.50;;;;;;;;;;5064411;28;20435;-75
2021/05/07 12:02:59;;;;;;;0.80;0.80;;;;;;;;;;5064819;28;20983;-73
2021/05/07 12:05:29;;;;;;;0.90;0.60;;;;;;;;;;5061145;28;20468;-74
2021/05/07 12:07:54;;;;;;;0.70;0.50;;;;;;;;;;5063354;28;20393;-74
2021/05/07 12:10:24;;;;;;;1.17;0.90;;;;;;;;;;5061560;28;20400;-73
2021/05/07 12:12:54;;;;;;;9.00;1.00;;;;;;;;;;5061714;28;20407;-75
2021/05/07 12:15:23;;;;;;;0.90;0.80;;;;;;;;;;5061737;28;20384;-74
2021/05/07 12:17:52;;;;;;;0.70;0.50;;;;;;;;;;5066311;28;20389;-73
2021/05/07 12:20:20;;;;;;;1.03;0.70;;;;;;;;;;5064533;28;20471;-72
2021/05/07 12:22:48;;;;;;;0.80;0.50;;;;;;;;;;5071503;28;20520;-73
2021/05/07 12:25:16;;;;;;;0.70;0.50;;;;;;;;;;5064002;28;20411;-72
2021/05/07 12:27:42;;;;;;;0.90;0.50;;;;;;;;;;5065132;28;20376;-74
2021/05/07 12:30:18;;;;;;;0.70;0.50;;;;;;;;;;5052064;28;20395;-73
2021/05/07 12:33:04;;;;;;;0.70;0.50;;;;;;;;;;5063804;28;20434;-73
2021/05/07 12:35:50;;;;;;;0.70;0.50;;;;;;;;;;5069553;28;20418;-74
2021/05/07 12:38:18;;;;;;;0.70;0.50;;;;;;;;;;5052919;28;20418;-74
2021/05/07 12:40:45;;;;;;;0.90;0.77;;;;;;;;;;5072026;28;20393;-72
2021/05/07 12:43:12;;;;;;;0.70;0.50;;;;;;;;;;5069580;28;20373;-74
2021/05/07 12:45:38;;;;;;;1.10;0.63;;;;;;;;;;5068755;28;20526;-73
2021/05/07 12:48:04;;;;;;;0.70;0.50;;;;;;;;;;5051705;28;20494;-73
2021/05/07 12:50:30;;;;;;;0.80;0.50;;;;;;;;;;5055748;28;20409;-74
2021/05/07 12:52:56;;;;;;;1.27;0.80;;;;;;;;;;5070163;28;20452;-75
2021/05/07 12:55:22;;;;;;;0.70;0.50;;;;;;;;;;5070972;28;20397;-75
2021/05/07 12:57:48;;;;;;;0.70;0.50;;;;;;;;;;5069481;28;20528;-75
2021/05/07 13:00:15;;;;;;;1.20;0.80;;;;;;;;;;5078904;28;20814;-75
2021/05/07 13:02:40;;;;;;;2.40;0.60;;;;;;;;;;5059445;28;20776;-74
2021/05/07 13:05:08;;;;;;;0.93;0.83;;;;;;;;;;5068178;28;20469;-73
2021/05/07 13:07:34;;;;;;;0.70;0.50;;;;;;;;;;5062616;28;20442;-73
2021/05/07 13:10:00;;;;;;;1.23;0.80;;;;;;;;;;5059457;28;20381;-74
2021/05/07 13:12:26;;;;;;;0.93;0.70;;;;;;;;;;5067429;28;20426;-73
2021/05/07 13:14:52;;;;;;;0.93;0.60;;;;;;;;;;5059755;28;20396;-73
2021/05/07 13:17:19;;;;;;;0.70;0.50;;;;;;;;;;5053083;28;20426;-73
2021/05/07 13:19:46;;;;;;;0.70;0.50;;;;;;;;;;5069961;28;20527;-74
2021/05/07 13:22:12;;;;;;;1.17;0.60;;;;;;;;;;5070429;28;20453;-74
2021/05/07 13:24:38;;;;;;;0.90;0.60;;;;;;;;;;5058480;28;20389;-72
2021/05/07 13:27:06;;;;;;;0.70;0.50;;;;;;;;;;5050607;28;20400;-74
2021/05/07 13:29:32;;;;;;;1.27;1.17;;;;;;;;;;5061316;28;20417;-73
2021/05/07 13:31:58;;;;;;;0.80;0.57;;;;;;;;;;5059782;28;20965;-73
2021/05/07 13:34:26;;;;;;;0.80;0.73;;;;;;;;;;5064007;28;20487;-74
2021/05/07 13:36:52;;;;;;;0.90;0.70;;;;;;;;;;5060705;28;20407;-73
2021/05/07 13:39:18;;;;;;;0.70;0.50;;;;;;;;;;5055910;28;20926;-71
2021/05/07 13:41:44;;;;;;;0.70;0.60;;;;;;;;;;5064952;28;20436;-72
2021/05/07 13:44:10;;;;;;;0.80;0.70;;;;;;;;;;5058167;28;20948;-73
2021/05/07 13:46:36;;;;;;;0.80;0.70;;;;;;;;;;5065127;28;20422;-73
2021/05/07 13:49:02;;;;;;;0.80;0.50;;;;;;;;;;5064239;28;20401;-72
2021/05/07 13:51:28;;;;;;;1.30;0.77;;;;;;;;;;5068075;28;20514;-73
2021/05/07 13:53:54;;;;;;;1.87;0.93;;;;;;;;;;5069521;28;20928;-73
2021/05/07 13:56:20;;;;;;;1.07;0.77;;;;;;;;;;5069480;28;20908;-73
2021/05/07 13:58:46;;;;;;;0.70;0.50;;;;;;;;;;5072789;28;20425;-74
2021/05/07 14:01:12;;;;;;;1.00;0.70;;;;;;;;;;5054891;28;21270;-73
2021/05/07 14:03:38;;;;;;;0.80;0.60;;;;;;;;;;5061631;28;20419;-72
2021/05/07 14:06:04;;;;;;;2.13;1.20;;;;;;;;;;5052750;28;20392;-73
2021/05/07 14:08:30;;;;;;;0.70;0.47;;;;;;;;;;5061807;28;20429;-74
2021/05/07 14:10:57;;;;;;;0.70;0.40;;;;;;;;;;5059838;28;20406;-73
2021/05/07 14:13:23;;;;;;;0.77;0.50;;;;;;;;;;5061418;28;20404;-74
2021/05/07 14:15:49;;;;;;;0.80;0.50;;;;;;;;;;5060215;28;20381;-73
2021/05/07 14:18:15;;;;;;;2.60;0.77;;;;;;;;;;5062000;28;20764;-73
2021/05/07 14:20:41;;;;;;;0.70;0.40;;;;;;;;;;5067753;28;20407;-72
2021/05/07 14:23:08;;;;;;;0.97;0.73;;;;;;;;;;5054453;28;20418;-72
2021/05/07 14:25:34;;;;;;;1.67;1.17;;;;;;;;;;5066033;28;20454;-73
2021/05/07 14:28:00;;;;;;;1.27;0.60;;;;;;;;;;5058758;28;20382;-73
2021/05/07 14:30:26;;;;;;;0.80;0.70;;;;;;;;;;5051550;28;20812;-73
2021/05/07 14:32:52;;;;;;;0.70;0.47;;;;;;;;;;5059608;28;20427;-72
2021/05/07 14:35:18;;;;;;;0.90;0.50;;;;;;;;;;5059783;28;20369;-72
2021/05/07 14:37:44;;;;;;;1.00;0.60;;;;;;;;;;5060756;28;21131;-73
2021/05/07 14:40:10;;;;;;;0.70;0.50;;;;;;;;;;5064602;28;20754;-73
2021/05/07 14:42:38;;;;;;;0.70;0.50;;;;;;;;;;5051842;28;21008;-70
2021/05/07 14:45:05;;;;;;;0.80;0.70;;;;;;;;;;5051188;28;20423;-69